My Meet Scores
Lana Lane, St. Charles Gymnastics Academy - MyMeetScores.com
Top100 | Top Teams | Upcoming Meets | Completed Meets | Latest | Add Scores | Help| Support | Bookmark and Share

Lana Lane, St. Charles Gymnastics Academy
Personal Bests
LevelVault BarsBeamFloorAA
XB9.3509.625 9.5259.60037.875
XG9.4509.800 9.4009.67537.950
XP9.4758.000 8.8509.20034.300
Scores on America's Top 100as of 11.26.2022
Year Level Vault Bars Beam Floor AA
2020 XG9.800

Click here to view our exclusive Top 100 Collection
Meet Scores
Date Meet Team Session Level Division Vault Bars Beam Floor AA
2022-04-08 Illinois Xcel State Championships 2022 St. Charles Gymnastics Academy 01B XP Jr B 9.475 3T 7.650 30 7.500 32 8.925 23 33.550 29
2022-02-18 BIG Classic 2022 St. Charles Gymnastics Academy 2B XP Junior B 9.175 7 7.700 11 8.475 12T 8.950 12 34.300 12
2022-02-11 SCGA Classic 2022 St. Charles Gymnastics Academy SA6 XP Jr B 9.200 4T 7.100 6 8.200 9 8.950 8 33.450 8
2022-01-28 The Circus! 2022 St. Charles Gymnastics Academy R6 XP Junior B 9.000 4 7.400 9 8.650 10 8.750 10 33.800 9
2022-01-21 King Arthur Invitational 2022 St. Charles Gymnastics Academy 10 XP Youth 9.000 9T 7.200 17 8.475 10 9.200 12 33.875 16
2022-01-07 St Jude Benefit Meet 2022 St. Charles Gymnastics Academy 8C XP Jr B 9.100 6T 7.250 15 7.400 15 8.700 12T 32.450 15
2021-12-10 St. Nick Invite 2021 St. Charles Gymnastics Academy 7B XP JrA 8.750 8T 8.000 8 8.850 5 8.450 10 34.050 7T
2021-03-18 Level 5 & Xcel Gold State St. Charles Gymnastics Academy 5 XG Ch D 9.450 6T 9.625 1T 9.250 19 9.200 20 37.525 6T
2021-02-19 BIG Classic 2021 St. Charles Gymnastics Academy 1A XG Junior C 9.300 3 9.750 1 9.400 4 9.500 4 37.950 1
2021-01-21 King Arthur Invitational St. Charles Gymnastics Academy 14 XG JR 8.700 8 9.750 1 9.275 5 9.300 1 37.025 3
2020-02-28 MEGA Spring Invite 2020 St. Charles Gymnastics Academy 1 XG Junior A 8.975 5 9.500 6 9.250 9T 9.300 8 37.025 5
2020-02-21 Great Western Invitational - Women's St. Charles Gymnastics Academy 07 XG Buckaroo 8.675 11 9.800 3 8.750 14T 9.525 8 36.750 9
2020-02-07 SCGA Classic St. Charles Gymnastics Academy 2 XG Jr A 9.075 5 9.300 5T 8.700 5 9.250 4 36.325 5
2020-01-24 King Arthur Invitational St. Charles Gymnastics Academy 11 XG JR A 9.000 4 9.300 9 8.925 9T 9.300 9 36.525 8
2020-01-10 St Jude Benefit Meet St. Charles Gymnastics Academy 4C XG Jr A 9.250 6T 8.950 15 9.175 6T 9.675 2T 37.050 6
2019-12-13 2019 St Nick St. Charles Gymnastics Academy 7B XG JrA 8.925 10 9.325 7T 7.700 16 9.425 9 35.375 14
2019-04-05 2019 Illinois XG, XP, XD State Championships St. Charles Gymnastics Academy 7 XG Ch B 8.750 25 9.475 5 9.150 11 9.300 15T 36.675 14
2019-03-01 NGCD Academy's 2019 Flip'r Invitational St. Charles Gymnastics Academy 2 XG Child 8.500 13 9.525 3T 9.350 6 8.925 12 36.300 7
2019-02-15 Women's Midwest Open St. Charles Gymnastics Academy 13 XG Junior A 8.100 11 9.225 5T 8.900 6 9.250 11T 35.475 9
2019-02-08 IGI Chicago Style 2019 St. Charles Gymnastics Academy 43 XG 132 State Gold A 8.750 11 9.300 8 8.400 17 9.475 8 35.925 12
2019-01-25 King Arthur Invitational St. Charles Gymnastics Academy 18 XG CH 8.625 13 9.225 8T 8.600 5T 9.000 11 35.450 9T
2019-01-11 St Jude Benefit Meet St. Charles Gymnastics Academy 5C XG Jr A 8.700 12 8.975 10 8.950 5 9.200 4T 35.825 8
2018-12-07 St. Nick Invite 2018 St. Charles Gymnastics Academy 4 XG JrA 8.500 17 9.100 8T 8.775 11T 9.375 1 35.750 9
2018-04-06 XCEL State Championships St. Charles Gymnastics Academy 11 XB CH B 9.125 12T 9.625 7 9.450 8T 9.525 5 37.725 6
2018-03-02 2018 Flip'r Invitational St. Charles Gymnastics Academy 5 XB Jr A 9.025 8 9.500 3 9.450 3 9.575 3 37.550 4
2018-02-23 Kinetic Classic St. Charles Gymnastics Academy 5 XB Younger 9.150 20T 9.600 8T 9.525 13T 9.600 4T 37.875 8
2018-02-16 Big Classic St. Charles Gymnastics Academy 8A XB Junior A 9.350 6T 9.225 11 9.450 6 9.500 1 37.525 5
2018-01-26 King Arthur Invitational St. Charles Gymnastics Academy 10 XB All 8.900 3 9.350 7 9.100 5T 9.050 6 36.400 6
2018-01-12 St Jude Benefit Meet St. Charles Gymnastics Academy 7C XB JrA 8.900 7 9.250 6 9.000 8T 9.550 2T 36.700 3
2017-12-14 2017 Women's Hawaiian Pineapple Classic St. Charles Gymnastics Academy 7A XB Age8 8.400 15 9.600 2 9.275 2 9.350 3 36.625 5
2017-12-01 Ultimate Wish Classic St. Charles Gymnastics Academy 14 XB All 9.100 6 9.500 4 9.400 4 9.450 5T 37.450 5
2017-11-17 SCGA Classic St. Charles Gymnastics Academy 4 XB JrB 8.575 8 9.375 2 8.675 7 9.450 1 36.075 5
Get your scores on
a t-shirt, pin, or hoodie